sensor_id;sensor_type;location;lat;lon;timestamp;P1;durP1;ratioP1;P2;durP2;ratioP2
68196;SDS011;55019;49.382;11.358;2023-03-01T00:01:19;10.63;;;5.10;;
68196;SDS011;55019;49.382;11.358;2023-03-01T00:03:46;11.15;;;4.45;;
68196;SDS011;55019;49.382;11.358;2023-03-01T00:06:12;12.40;;;6.00;;
68196;SDS011;55019;49.382;11.358;2023-03-01T00:08:38;10.43;;;5.95;;
68196;SDS011;55019;49.382;11.358;2023-03-01T00:11:06;11.93;;;5.88;;
68196;SDS011;55019;49.382;11.358;2023-03-01T00:13:37;12.88;;;6.07;;
68196;SDS011;55019;49.382;11.358;2023-03-01T00:16:03;13.68;;;5.45;;
68196;SDS011;55019;49.382;11.358;2023-03-01T00:18:31;14.18;;;6.30;;
68196;SDS011;55019;49.382;11.358;2023-03-01T00:20:57;14.73;;;6.20;;
68196;SDS011;55019;49.382;11.358;2023-03-01T00:23:23;12.88;;;5.93;;
68196;SDS011;55019;49.382;11.358;2023-03-01T00:25:49;11.95;;;5.63;;
68196;SDS011;55019;49.382;11.358;2023-03-01T00:28:16;14.13;;;5.57;;
68196;SDS011;55019;49.382;11.358;2023-03-01T00:30:42;13.45;;;5.65;;
68196;SDS011;55019;49.382;11.358;2023-03-01T00:33:08;14.35;;;6.43;;
68196;SDS011;55019;49.382;11.358;2023-03-01T00:35:33;10.18;;;5.65;;
68196;SDS011;55019;49.382;11.358;2023-03-01T00:38:00;11.63;;;6.03;;
68196;SDS011;55019;49.382;11.358;2023-03-01T00:40:26;10.60;;;4.85;;
68196;SDS011;55019;49.382;11.358;2023-03-01T00:42:53;13.57;;;6.00;;
68196;SDS011;55019;49.382;11.358;2023-03-01T00:45:19;10.65;;;4.97;;
68196;SDS011;55019;49.382;11.358;2023-03-01T00:47:45;9.55;;;5.30;;
68196;SDS011;55019;49.382;11.358;2023-03-01T00:50:11;12.98;;;6.20;;
68196;SDS011;55019;49.382;11.358;2023-03-01T00:52:37;10.95;;;5.35;;
68196;SDS011;55019;49.382;11.358;2023-03-01T00:55:03;11.23;;;5.20;;
68196;SDS011;55019;49.382;11.358;2023-03-01T00:57:30;12.73;;;5.05;;
68196;SDS011;55019;49.382;11.358;2023-03-01T00:59:56;11.80;;;5.38;;
68196;SDS011;55019;49.382;11.358;2023-03-01T01:02:22;13.23;;;5.75;;
68196;SDS011;55019;49.382;11.358;2023-03-01T01:04:48;9.65;;;4.82;;
68196;SDS011;55019;49.382;11.358;2023-03-01T01:07:14;8.98;;;5.03;;
68196;SDS011;55019;49.382;11.358;2023-03-01T01:09:40;9.50;;;5.38;;
68196;SDS011;55019;49.382;11.358;2023-03-01T01:12:06;9.18;;;5.13;;
68196;SDS011;55019;49.382;11.358;2023-03-01T01:14:33;9.32;;;4.93;;
68196;SDS011;55019;49.382;11.358;2023-03-01T01:16:59;12.18;;;5.45;;
68196;SDS011;55019;49.382;11.358;2023-03-01T01:19:25;10.63;;;5.22;;
68196;SDS011;55019;49.382;11.358;2023-03-01T01:21:51;11.60;;;5.10;;
68196;SDS011;55019;49.382;11.358;2023-03-01T01:24:17;11.30;;;5.28;;
68196;SDS011;55019;49.382;11.358;2023-03-01T01:26:44;11.23;;;5.53;;
68196;SDS011;55019;49.382;11.358;2023-03-01T01:29:11;10.15;;;4.65;;
68196;SDS011;55019;49.382;11.358;2023-03-01T01:31:37;10.48;;;5.78;;
68196;SDS011;55019;49.382;11.358;2023-03-01T01:34:05;10.38;;;5.40;;
68196;SDS011;55019;49.382;11.358;2023-03-01T01:36:32;14.95;;;5.95;;
68196;SDS011;55019;49.382;11.358;2023-03-01T01:38:59;12.32;;;5.32;;
68196;SDS011;55019;49.382;11.358;2023-03-01T01:41:26;12.57;;;6.05;;
68196;SDS011;55019;49.382;11.358;2023-03-01T01:47:05;10.55;;;5.65;;
68196;SDS011;55019;49.382;11.358;2023-03-01T01:49:40;9.55;;;4.72;;
68196;SDS011;55019;49.382;11.358;2023-03-01T01:54:53;14.25;;;6.07;;
68196;SDS011;55019;49.382;11.358;2023-03-01T01:57:22;13.35;;;6.00;;
68196;SDS011;55019;49.382;11.358;2023-03-01T01:59:53;11.75;;;6.35;;
68196;SDS011;55019;49.382;11.358;2023-03-01T02:02:23;11.43;;;5.25;;
68196;SDS011;55019;49.382;11.358;2023-03-01T02:04:50;11.02;;;6.00;;
68196;SDS011;55019;49.382;11.358;2023-03-01T02:07:21;11.30;;;4.90;;
68196;SDS011;55019;49.382;11.358;2023-03-01T02:09:49;13.45;;;5.47;;
68196;SDS011;55019;49.382;11.358;2023-03-01T02:12:18;16.65;;;6.00;;
68196;SDS011;55019;49.382;11.358;2023-03-01T02:14:47;12.60;;;5.65;;
68196;SDS011;55019;49.382;11.358;2023-03-01T02:17:13;12.73;;;5.43;;
68196;SDS011;55019;49.382;11.358;2023-03-01T02:19:57;15.18;;;6.70;;
68196;SDS011;55019;49.382;11.358;2023-03-01T02:22:40;12.70;;;5.57;;
68196;SDS011;55019;49.382;11.358;2023-03-01T02:30:30;13.15;;;5.55;;
68196;SDS011;55019;49.382;11.358;2023-03-01T02:32:57;10.88;;;5.05;;
68196;SDS011;55019;49.382;11.358;2023-03-01T02:35:29;11.10;;;5.30;;
68196;SDS011;55019;49.382;11.358;2023-03-01T02:37:58;13.48;;;5.22;;
68196;SDS011;55019;49.382;11.358;2023-03-01T02:40:27;11.23;;;5.82;;
68196;SDS011;55019;49.382;11.358;2023-03-01T02:42:57;12.32;;;4.93;;
68196;SDS011;55019;49.382;11.358;2023-03-01T02:45:25;10.88;;;5.75;;
68196;SDS011;55019;49.382;11.358;2023-03-01T02:47:55;11.45;;;5.15;;
68196;SDS011;55019;49.382;11.358;2023-03-01T02:55:25;11.63;;;5.72;;
68196;SDS011;55019;49.382;11.358;2023-03-01T02:57:53;10.98;;;5.80;;
68196;SDS011;55019;49.382;11.358;2023-03-01T03:00:40;13.32;;;5.50;;
68196;SDS011;55019;49.382;11.358;2023-03-01T03:03:13;13.80;;;5.60;;
68196;SDS011;55019;49.382;11.358;2023-03-01T03:05:40;14.52;;;5.53;;
68196;SDS011;55019;49.382;11.358;2023-03-01T03:08:06;12.20;;;5.13;;
68196;SDS011;55019;49.382;11.358;2023-03-01T03:10:36;12.05;;;6.10;;
68196;SDS011;55019;49.382;11.358;2023-03-01T03:13:06;9.95;;;5.72;;
68196;SDS011;55019;49.382;11.358;2023-03-01T03:15:34;11.63;;;5.53;;
68196;SDS011;55019;49.382;11.358;2023-03-01T03:18:05;12.15;;;5.97;;
68196;SDS011;55019;49.382;11.358;2023-03-01T03:20:33;14.48;;;6.03;;
68196;SDS011;55019;49.382;11.358;2023-03-01T03:22:59;14.20;;;5.22;;
68196;SDS011;55019;49.382;11.358;2023-03-01T03:25:25;12.43;;;5.70;;
68196;SDS011;55019;49.382;11.358;2023-03-01T03:27:52;11.88;;;6.13;;
68196;SDS011;55019;49.382;11.358;2023-03-01T03:30:25;14.02;;;5.55;;
68196;SDS011;55019;49.382;11.358;2023-03-01T03:32:54;13.50;;;5.57;;
68196;SDS011;55019;49.382;11.358;2023-03-01T03:35:25;12.93;;;5.30;;
68196;SDS011;55019;49.382;11.358;2023-03-01T03:37:55;11.43;;;5.65;;
68196;SDS011;55019;49.382;11.358;2023-03-01T03:42:59;13.13;;;5.68;;
68196;SDS011;55019;49.382;11.358;2023-03-01T03:45:25;12.10;;;4.88;;
68196;SDS011;55019;49.382;11.358;2023-03-01T03:47:51;12.60;;;5.97;;
68196;SDS011;55019;49.382;11.358;2023-03-01T03:50:17;13.50;;;6.43;;
68196;SDS011;55019;49.382;11.358;2023-03-01T03:52:43;9.98;;;5.10;;
68196;SDS011;55019;49.382;11.358;2023-03-01T03:55:10;14.02;;;6.22;;
68196;SDS011;55019;49.382;11.358;2023-03-01T03:57:37;16.38;;;5.82;;
68196;SDS011;55019;49.382;11.358;2023-03-01T04:00:04;12.57;;;5.20;;
68196;SDS011;55019;49.382;11.358;2023-03-01T04:02:41;12.70;;;5.70;;
68196;SDS011;55019;49.382;11.358;2023-03-01T04:05:08;11.70;;;5.80;;
68196;SDS011;55019;49.382;11.358;2023-03-01T04:07:36;13.00;;;5.88;;
68196;SDS011;55019;49.382;11.358;2023-03-01T04:10:06;11.63;;;5.45;;
68196;SDS011;55019;49.382;11.358;2023-03-01T04:12:37;13.52;;;6.22;;
68196;SDS011;55019;49.382;11.358;2023-03-01T04:15:03;11.40;;;5.63;;
68196;SDS011;55019;49.382;11.358;2023-03-01T04:17:41;14.27;;;5.22;;
68196;SDS011;55019;49.382;11.358;2023-03-01T04:20:09;12.15;;;5.57;;
68196;SDS011;55019;49.382;11.358;2023-03-01T04:22:37;12.18;;;5.50;;
68196;SDS011;55019;49.382;11.358;2023-03-01T04:25:04;14.40;;;6.22;;
68196;SDS011;55019;49.382;11.358;2023-03-01T04:27:35;10.60;;;5.55;;
68196;SDS011;55019;49.382;11.358;2023-03-01T04:30:02;12.15;;;5.15;;
68196;SDS011;55019;49.382;11.358;2023-03-01T04:32:28;12.57;;;6.13;;
68196;SDS011;55019;49.382;11.358;2023-03-01T04:34:55;12.40;;;5.65;;
68196;SDS011;55019;49.382;11.358;2023-03-01T04:37:20;15.57;;;6.68;;
68196;SDS011;55019;49.382;11.358;2023-03-01T04:39:46;11.90;;;5.38;;
68196;SDS011;55019;49.382;11.358;2023-03-01T04:42:13;13.20;;;6.60;;
68196;SDS011;55019;49.382;11.358;2023-03-01T04:44:39;9.60;;;5.43;;
68196;SDS011;55019;49.382;11.358;2023-03-01T04:47:05;13.20;;;6.10;;
68196;SDS011;55019;49.382;11.358;2023-03-01T04:49:31;11.70;;;5.80;;
68196;SDS011;55019;49.382;11.358;2023-03-01T04:51:57;12.77;;;5.60;;
68196;SDS011;55019;49.382;11.358;2023-03-01T04:54:29;14.18;;;5.38;;
68196;SDS011;55019;49.382;11.358;2023-03-01T04:56:57;11.57;;;5.30;;
68196;SDS011;55019;49.382;11.358;2023-03-01T04:59:23;10.50;;;5.35;;
68196;SDS011;55019;49.382;11.358;2023-03-01T05:01:52;10.50;;;5.28;;
68196;SDS011;55019;49.382;11.358;2023-03-01T05:04:23;9.63;;;5.15;;
68196;SDS011;55019;49.382;11.358;2023-03-01T05:06:49;13.68;;;6.35;;
68196;SDS011;55019;49.382;11.358;2023-03-01T05:09:15;14.32;;;5.50;;
68196;SDS011;55019;49.382;11.358;2023-03-01T05:11:41;14.00;;;5.90;;
68196;SDS011;55019;49.382;11.358;2023-03-01T05:14:08;15.85;;;6.72;;
68196;SDS011;55019;49.382;11.358;2023-03-01T05:16:35;10.98;;;5.75;;
68196;SDS011;55019;49.382;11.358;2023-03-01T05:19:02;13.90;;;6.35;;
68196;SDS011;55019;49.382;11.358;2023-03-01T05:21:41;13.13;;;6.18;;
68196;SDS011;55019;49.382;11.358;2023-03-01T05:24:26;12.75;;;5.72;;
68196;SDS011;55019;49.382;11.358;2023-03-01T05:26:53;14.95;;;6.35;;
68196;SDS011;55019;49.382;11.358;2023-03-01T05:29:22;12.35;;;5.75;;
68196;SDS011;55019;49.382;11.358;2023-03-01T05:31:56;12.43;;;6.05;;
68196;SDS011;55019;49.382;11.358;2023-03-01T05:34:24;15.82;;;6.47;;
68196;SDS011;55019;49.382;11.358;2023-03-01T05:36:51;12.10;;;5.63;;
68196;SDS011;55019;49.382;11.358;2023-03-01T05:39:22;15.98;;;6.85;;
68196;SDS011;55019;49.382;11.358;2023-03-01T05:41:54;10.48;;;5.75;;
68196;SDS011;55019;49.382;11.358;2023-03-01T05:44:22;13.80;;;5.90;;
68196;SDS011;55019;49.382;11.358;2023-03-01T05:46:48;13.63;;;6.38;;
68196;SDS011;55019;49.382;11.358;2023-03-01T05:49:14;14.73;;;6.25;;
68196;SDS011;55019;49.382;11.358;2023-03-01T05:51:41;11.00;;;5.93;;
68196;SDS011;55019;49.382;11.358;2023-03-01T05:54:08;12.65;;;6.15;;
68196;SDS011;55019;49.382;11.358;2023-03-01T05:56:35;11.18;;;5.63;;
68196;SDS011;55019;49.382;11.358;2023-03-01T05:59:02;10.32;;;5.07;;
68196;SDS011;55019;49.382;11.358;2023-03-01T06:01:33;12.98;;;5.68;;
68196;SDS011;55019;49.382;11.358;2023-03-01T06:03:59;11.57;;;6.75;;
68196;SDS011;55019;49.382;11.358;2023-03-01T06:06:25;13.00;;;5.72;;
68196;SDS011;55019;49.382;11.358;2023-03-01T06:08:51;17.52;;;7.50;;
68196;SDS011;55019;49.382;11.358;2023-03-01T06:11:18;13.35;;;5.88;;
68196;SDS011;55019;49.382;11.358;2023-03-01T06:13:44;15.65;;;6.45;;
68196;SDS011;55019;49.382;11.358;2023-03-01T06:16:10;12.98;;;6.35;;
68196;SDS011;55019;49.382;11.358;2023-03-01T06:18:37;15.48;;;5.97;;
68196;SDS011;55019;49.382;11.358;2023-03-01T06:21:03;15.25;;;6.18;;
68196;SDS011;55019;49.382;11.358;2023-03-01T06:23:30;12.30;;;5.40;;
68196;SDS011;55019;49.382;11.358;2023-03-01T06:25:55;12.10;;;5.90;;
68196;SDS011;55019;49.382;11.358;2023-03-01T06:28:21;13.80;;;6.15;;
68196;SDS011;55019;49.382;11.358;2023-03-01T06:30:47;13.43;;;6.07;;
68196;SDS011;55019;49.382;11.358;2023-03-01T06:33:13;11.73;;;5.68;;
68196;SDS011;55019;49.382;11.358;2023-03-01T06:35:39;13.82;;;6.28;;
68196;SDS011;55019;49.382;11.358;2023-03-01T06:38:05;15.18;;;5.95;;
68196;SDS011;55019;49.382;11.358;2023-03-01T06:40:31;13.05;;;6.88;;
68196;SDS011;55019;49.382;11.358;2023-03-01T06:42:57;13.40;;;6.45;;
68196;SDS011;55019;49.382;11.358;2023-03-01T06:45:23;13.23;;;5.95;;
68196;SDS011;55019;49.382;11.358;2023-03-01T06:47:49;12.25;;;6.55;;
68196;SDS011;55019;49.382;11.358;2023-03-01T06:50:16;11.45;;;5.97;;
68196;SDS011;55019;49.382;11.358;2023-03-01T06:52:42;15.20;;;6.68;;
68196;SDS011;55019;49.382;11.358;2023-03-01T06:55:10;12.38;;;7.07;;
68196;SDS011;55019;49.382;11.358;2023-03-01T06:57:37;15.50;;;6.43;;
68196;SDS011;55019;49.382;11.358;2023-03-01T07:00:03;13.13;;;6.70;;
68196;SDS011;55019;49.382;11.358;2023-03-01T07:02:31;14.10;;;6.60;;
68196;SDS011;55019;49.382;11.358;2023-03-01T07:04:56;14.50;;;6.72;;
68196;SDS011;55019;49.382;11.358;2023-03-01T07:07:22;14.55;;;6.32;;
68196;SDS011;55019;49.382;11.358;2023-03-01T07:09:48;15.63;;;6.85;;
68196;SDS011;55019;49.382;11.358;2023-03-01T07:12:14;14.35;;;6.72;;
68196;SDS011;55019;49.382;11.358;2023-03-01T07:14:40;17.48;;;7.40;;
68196;SDS011;55019;49.382;11.358;2023-03-01T07:17:06;16.77;;;7.97;;
68196;SDS011;55019;49.382;11.358;2023-03-01T07:19:32;14.73;;;7.32;;
68196;SDS011;55019;49.382;11.358;2023-03-01T07:21:58;16.95;;;6.93;;
68196;SDS011;55019;49.382;11.358;2023-03-01T07:24:23;15.95;;;6.03;;
68196;SDS011;55019;49.382;11.358;2023-03-01T07:26:50;13.45;;;6.32;;
68196;SDS011;55019;49.382;11.358;2023-03-01T07:29:16;15.35;;;6.95;;
68196;SDS011;55019;49.382;11.358;2023-03-01T07:31:43;15.32;;;6.30;;
68196;SDS011;55019;49.382;11.358;2023-03-01T07:34:09;16.48;;;7.55;;
68196;SDS011;55019;49.382;11.358;2023-03-01T07:36:36;13.55;;;7.13;;
68196;SDS011;55019;49.382;11.358;2023-03-01T07:39:02;14.73;;;7.90;;
68196;SDS011;55019;49.382;11.358;2023-03-01T07:41:29;14.27;;;7.32;;
68196;SDS011;55019;49.382;11.358;2023-03-01T07:43:55;13.43;;;7.47;;
68196;SDS011;55019;49.382;11.358;2023-03-01T07:46:20;17.40;;;7.60;;
68196;SDS011;55019;49.382;11.358;2023-03-01T07:48:46;17.42;;;6.88;;
68196;SDS011;55019;49.382;11.358;2023-03-01T07:51:12;13.32;;;7.97;;
68196;SDS011;55019;49.382;11.358;2023-03-01T07:53:39;15.60;;;7.43;;
68196;SDS011;55019;49.382;11.358;2023-03-01T07:56:05;14.85;;;6.55;;
68196;SDS011;55019;49.382;11.358;2023-03-01T07:58:40;12.43;;;6.53;;
68196;SDS011;55019;49.382;11.358;2023-03-01T08:01:17;18.23;;;7.50;;
68196;SDS011;55019;49.382;11.358;2023-03-01T08:03:44;13.93;;;6.72;;
68196;SDS011;55019;49.382;11.358;2023-03-01T08:06:11;12.30;;;6.10;;
68196;SDS011;55019;49.382;11.358;2023-03-01T08:08:38;17.08;;;7.68;;
68196;SDS011;55019;49.382;11.358;2023-03-01T08:11:04;14.25;;;7.90;;
68196;SDS011;55019;49.382;11.358;2023-03-01T08:16:04;15.73;;;7.95;;
68196;SDS011;55019;49.382;11.358;2023-03-01T08:18:32;13.13;;;7.30;;
68196;SDS011;55019;49.382;11.358;2023-03-01T08:21:04;16.58;;;7.93;;
68196;SDS011;55019;49.382;11.358;2023-03-01T08:23:31;16.67;;;8.27;;
68196;SDS011;55019;49.382;11.358;2023-03-01T08:26:14;17.80;;;9.05;;
68196;SDS011;55019;49.382;11.358;2023-03-01T08:28:41;16.30;;;9.57;;
68196;SDS011;55019;49.382;11.358;2023-03-01T08:31:14;16.17;;;9.13;;
68196;SDS011;55019;49.382;11.358;2023-03-01T08:33:41;15.52;;;8.88;;
68196;SDS011;55019;49.382;11.358;2023-03-01T08:36:07;16.60;;;8.63;;
68196;SDS011;55019;49.382;11.358;2023-03-01T08:38:33;15.07;;;8.57;;
68196;SDS011;55019;49.382;11.358;2023-03-01T08:41:00;19.65;;;10.38;;
68196;SDS011;55019;49.382;11.358;2023-03-01T08:43:27;15.95;;;8.60;;
68196;SDS011;55019;49.382;11.358;2023-03-01T08:45:52;13.45;;;8.93;;
68196;SDS011;55019;49.382;11.358;2023-03-01T08:48:18;14.93;;;8.40;;
68196;SDS011;55019;49.382;11.358;2023-03-01T08:50:44;14.32;;;8.32;;
68196;SDS011;55019;49.382;11.358;2023-03-01T08:53:10;13.77;;;9.27;;
68196;SDS011;55019;49.382;11.358;2023-03-01T08:55:35;15.63;;;9.25;;
68196;SDS011;55019;49.382;11.358;2023-03-01T08:58:01;14.68;;;8.55;;
68196;SDS011;55019;49.382;11.358;2023-03-01T09:00:26;14.85;;;9.05;;
68196;SDS011;55019;49.382;11.358;2023-03-01T09:02:53;14.40;;;9.27;;
68196;SDS011;55019;49.382;11.358;2023-03-01T09:05:18;15.05;;;9.30;;
68196;SDS011;55019;49.382;11.358;2023-03-01T09:07:44;15.18;;;8.40;;
68196;SDS011;55019;49.382;11.358;2023-03-01T09:10:10;14.18;;;8.88;;
68196;SDS011;55019;49.382;11.358;2023-03-01T09:12:36;14.32;;;8.80;;
68196;SDS011;55019;49.382;11.358;2023-03-01T09:15:01;13.98;;;8.98;;
68196;SDS011;55019;49.382;11.358;2023-03-01T09:17:27;13.88;;;7.97;;
68196;SDS011;55019;49.382;11.358;2023-03-01T09:19:53;14.60;;;8.82;;
68196;SDS011;55019;49.382;11.358;2023-03-01T09:22:18;16.38;;;9.82;;
68196;SDS011;55019;49.382;11.358;2023-03-01T09:24:44;13.05;;;9.48;;
68196;SDS011;55019;49.382;11.358;2023-03-01T09:27:10;14.93;;;9.10;;
68196;SDS011;55019;49.382;11.358;2023-03-01T09:29:38;14.50;;;9.75;;
68196;SDS011;55019;49.382;11.358;2023-03-01T09:32:03;13.27;;;8.93;;
68196;SDS011;55019;49.382;11.358;2023-03-01T09:34:29;15.13;;;9.25;;
68196;SDS011;55019;49.382;11.358;2023-03-01T09:36:56;15.13;;;10.38;;
68196;SDS011;55019;49.382;11.358;2023-03-01T09:39:23;15.30;;;9.68;;
68196;SDS011;55019;49.382;11.358;2023-03-01T09:41:58;16.00;;;9.95;;
68196;SDS011;55019;49.382;11.358;2023-03-01T09:44:32;15.25;;;9.35;;
68196;SDS011;55019;49.382;11.358;2023-03-01T09:47:03;15.20;;;8.93;;
68196;SDS011;55019;49.382;11.358;2023-03-01T09:49:30;14.55;;;8.93;;
68196;SDS011;55019;49.382;11.358;2023-03-01T09:52:11;14.93;;;9.85;;
68196;SDS011;55019;49.382;11.358;2023-03-01T09:54:46;15.23;;;9.68;;
68196;SDS011;55019;49.382;11.358;2023-03-01T09:57:24;15.05;;;8.77;;
68196;SDS011;55019;49.382;11.358;2023-03-01T10:00:16;14.38;;;9.35;;
68196;SDS011;55019;49.382;11.358;2023-03-01T10:03:49;12.93;;;8.75;;
68196;SDS011;55019;49.382;11.358;2023-03-01T10:06:01;42.67;;;21.90;;
68196;SDS011;55019;49.382;11.358;2023-03-01T10:08:48;15.85;;;9.20;;
68196;SDS011;55019;49.382;11.358;2023-03-01T10:11:23;14.52;;;10.02;;
68196;SDS011;55019;49.382;11.358;2023-03-01T10:14:00;15.48;;;9.45;;
68196;SDS011;55019;49.382;11.358;2023-03-01T10:19:21;14.60;;;9.32;;
68196;SDS011;55019;49.382;11.358;2023-03-01T10:24:48;13.43;;;8.52;;
68196;SDS011;55019;49.382;11.358;2023-03-01T10:30:00;15.43;;;10.13;;
68196;SDS011;55019;49.382;11.358;2023-03-01T10:32:36;13.90;;;9.20;;
68196;SDS011;55019;49.382;11.358;2023-03-01T10:35:15;13.43;;;10.30;;
68196;SDS011;55019;49.382;11.358;2023-03-01T10:38:05;14.05;;;9.07;;
68196;SDS011;55019;49.382;11.358;2023-03-01T10:40:31;14.93;;;9.75;;
68196;SDS011;55019;49.382;11.358;2023-03-01T10:42:58;13.48;;;9.60;;
68196;SDS011;55019;49.382;11.358;2023-03-01T10:50:36;14.40;;;9.93;;
68196;SDS011;55019;49.382;11.358;2023-03-01T10:53:03;15.10;;;10.57;;
68196;SDS011;55019;49.382;11.358;2023-03-01T10:55:37;17.20;;;10.65;;
68196;SDS011;55019;49.382;11.358;2023-03-01T11:00:52;14.00;;;10.18;;
68196;SDS011;55019;49.382;11.358;2023-03-01T11:03:25;16.52;;;10.48;;
68196;SDS011;55019;49.382;11.358;2023-03-01T11:06:04;14.15;;;10.30;;
68196;SDS011;55019;49.382;11.358;2023-03-01T11:08:40;15.02;;;9.93;;
68196;SDS011;55019;49.382;11.358;2023-03-01T11:13:55;12.73;;;10.07;;
68196;SDS011;55019;49.382;11.358;2023-03-01T11:16:23;14.95;;;10.10;;
68196;SDS011;55019;49.382;11.358;2023-03-01T11:18:57;18.75;;;9.93;;
68196;SDS011;55019;49.382;11.358;2023-03-01T11:21:25;16.45;;;10.73;;
68196;SDS011;55019;49.382;11.358;2023-03-01T11:23:53;16.23;;;10.45;;
68196;SDS011;55019;49.382;11.358;2023-03-01T11:26:19;13.85;;;8.80;;
68196;SDS011;55019;49.382;11.358;2023-03-01T11:28:48;15.27;;;9.90;;
68196;SDS011;55019;49.382;11.358;2023-03-01T11:31:16;14.10;;;10.02;;
68196;SDS011;55019;49.382;11.358;2023-03-01T11:39:26;11.65;;;9.15;;
68196;SDS011;55019;49.382;11.358;2023-03-01T11:42:20;14.50;;;9.10;;
68196;SDS011;55019;49.382;11.358;2023-03-01T11:44:50;13.10;;;10.40;;
68196;SDS011;55019;49.382;11.358;2023-03-01T11:47:22;15.55;;;9.95;;
68196;SDS011;55019;49.382;11.358;2023-03-01T11:56:11;12.63;;;9.02;;
68196;SDS011;55019;49.382;11.358;2023-03-01T11:58:23;13.07;;;8.65;;
68196;SDS011;55019;49.382;11.358;2023-03-01T12:06:26;13.13;;;9.70;;
68196;SDS011;55019;49.382;11.358;2023-03-01T12:14:46;14.30;;;9.65;;
68196;SDS011;55019;49.382;11.358;2023-03-01T12:20:23;11.85;;;9.65;;
68196;SDS011;55019;49.382;11.358;2023-03-01T12:38:02;11.68;;;8.70;;
68196;SDS011;55019;49.382;11.358;2023-03-01T12:40:48;9.65;;;7.90;;
68196;SDS011;55019;49.382;11.358;2023-03-01T12:49:44;10.65;;;8.90;;
68196;SDS011;55019;49.382;11.358;2023-03-01T12:54:48;10.90;;;8.27;;
68196;SDS011;55019;49.382;11.358;2023-03-01T12:57:21;10.95;;;8.43;;
68196;SDS011;55019;49.382;11.358;2023-03-01T12:59:58;12.30;;;8.73;;
68196;SDS011;55019;49.382;11.358;2023-03-01T13:02:54;11.68;;;8.43;;
68196;SDS011;55019;49.382;11.358;2023-03-01T13:10:59;11.25;;;8.68;;
68196;SDS011;55019;49.382;11.358;2023-03-01T13:13:27;8.73;;;6.53;;
68196;SDS011;55019;49.382;11.358;2023-03-01T13:15:54;10.38;;;7.55;;
68196;SDS011;55019;49.382;11.358;2023-03-01T13:20:51;11.95;;;8.38;;
68196;SDS011;55019;49.382;11.358;2023-03-01T13:28:38;12.88;;;8.48;;
68196;SDS011;55019;49.382;11.358;2023-03-01T13:31:55;10.75;;;7.97;;
68196;SDS011;55019;49.382;11.358;2023-03-01T13:33:57;12.15;;;8.40;;
68196;SDS011;55019;49.382;11.358;2023-03-01T13:38:58;12.50;;;8.43;;
68196;SDS011;55019;49.382;11.358;2023-03-01T13:44:26;11.00;;;8.68;;
68196;SDS011;55019;49.382;11.358;2023-03-01T13:54:53;14.15;;;9.98;;
68196;SDS011;55019;49.382;11.358;2023-03-01T13:57:20;13.48;;;10.35;;
68196;SDS011;55019;49.382;11.358;2023-03-01T13:59:50;17.50;;;11.50;;
68196;SDS011;55019;49.382;11.358;2023-03-01T14:02:16;13.13;;;9.13;;
68196;SDS011;55019;49.382;11.358;2023-03-01T14:04:42;12.18;;;8.75;;
68196;SDS011;55019;49.382;11.358;2023-03-01T14:07:27;13.80;;;9.52;;
68196;SDS011;55019;49.382;11.358;2023-03-01T14:09:56;11.73;;;8.90;;
68196;SDS011;55019;49.382;11.358;2023-03-01T14:20:41;16.00;;;9.35;;
68196;SDS011;55019;49.382;11.358;2023-03-01T14:23:10;15.10;;;10.27;;
68196;SDS011;55019;49.382;11.358;2023-03-01T14:25:46;13.43;;;9.30;;
68196;SDS011;55019;49.382;11.358;2023-03-01T14:30:54;15.65;;;9.52;;
68196;SDS011;55019;49.382;11.358;2023-03-01T14:33:23;11.82;;;8.63;;
68196;SDS011;55019;49.382;11.358;2023-03-01T14:35:53;13.40;;;8.48;;
68196;SDS011;55019;49.382;11.358;2023-03-01T14:38:37;12.88;;;8.77;;
68196;SDS011;55019;49.382;11.358;2023-03-01T14:41:08;12.25;;;8.65;;
68196;SDS011;55019;49.382;11.358;2023-03-01T14:43:37;11.75;;;8.57;;
68196;SDS011;55019;49.382;11.358;2023-03-01T14:46:06;14.05;;;8.43;;
68196;SDS011;55019;49.382;11.358;2023-03-01T14:48:42;11.70;;;8.07;;
68196;SDS011;55019;49.382;11.358;2023-03-01T14:51:07;12.88;;;9.00;;
68196;SDS011;55019;49.382;11.358;2023-03-01T14:56:01;12.80;;;9.55;;
68196;SDS011;55019;49.382;11.358;2023-03-01T14:58:27;12.57;;;9.02;;
68196;SDS011;55019;49.382;11.358;2023-03-01T15:00:57;12.23;;;7.65;;
68196;SDS011;55019;49.382;11.358;2023-03-01T15:03:28;10.60;;;8.00;;
68196;SDS011;55019;49.382;11.358;2023-03-01T15:06:02;10.05;;;8.15;;
68196;SDS011;55019;49.382;11.358;2023-03-01T15:13:51;12.45;;;8.10;;
68196;SDS011;55019;49.382;11.358;2023-03-01T15:16:27;12.85;;;8.65;;
68196;SDS011;55019;49.382;11.358;2023-03-01T15:18:57;13.73;;;8.55;;
68196;SDS011;55019;49.382;11.358;2023-03-01T15:21:32;10.88;;;8.38;;
68196;SDS011;55019;49.382;11.358;2023-03-01T15:24:32;12.82;;;7.60;;
68196;SDS011;55019;49.382;11.358;2023-03-01T15:26:59;11.43;;;6.88;;
68196;SDS011;55019;49.382;11.358;2023-03-01T15:29:32;11.88;;;7.25;;
68196;SDS011;55019;49.382;11.358;2023-03-01T15:32:06;11.70;;;7.20;;
68196;SDS011;55019;49.382;11.358;2023-03-01T15:34:52;12.50;;;7.95;;
68196;SDS011;55019;49.382;11.358;2023-03-01T15:40:21;10.95;;;7.72;;
68196;SDS011;55019;49.382;11.358;2023-03-01T15:42:57;12.48;;;7.68;;
68196;SDS011;55019;49.382;11.358;2023-03-01T15:45:24;11.63;;;7.28;;
68196;SDS011;55019;49.382;11.358;2023-03-01T15:47:56;13.63;;;7.30;;
68196;SDS011;55019;49.382;11.358;2023-03-01T15:50:27;12.93;;;8.13;;
68196;SDS011;55019;49.382;11.358;2023-03-01T15:52:55;14.45;;;7.95;;
68196;SDS011;55019;49.382;11.358;2023-03-01T15:55:24;12.68;;;8.00;;
68196;SDS011;55019;49.382;11.358;2023-03-01T16:00:50;15.85;;;7.30;;
68196;SDS011;55019;49.382;11.358;2023-03-01T16:03:21;13.43;;;7.85;;
68196;SDS011;55019;49.382;11.358;2023-03-01T16:05:48;13.50;;;7.97;;
68196;SDS011;55019;49.382;11.358;2023-03-01T16:08:15;14.80;;;8.68;;
68196;SDS011;55019;49.382;11.358;2023-03-01T16:10:42;15.93;;;8.32;;
68196;SDS011;55019;49.382;11.358;2023-03-01T16:13:11;15.32;;;7.80;;
68196;SDS011;55019;49.382;11.358;2023-03-01T16:15:37;14.55;;;8.18;;
68196;SDS011;55019;49.382;11.358;2023-03-01T16:18:05;16.23;;;7.88;;
68196;SDS011;55019;49.382;11.358;2023-03-01T16:20:31;15.77;;;8.30;;
68196;SDS011;55019;49.382;11.358;2023-03-01T16:22:58;15.50;;;8.18;;
68196;SDS011;55019;49.382;11.358;2023-03-01T16:25:25;15.40;;;8.75;;
68196;SDS011;55019;49.382;11.358;2023-03-01T16:27:51;18.50;;;8.55;;
68196;SDS011;55019;49.382;11.358;2023-03-01T16:30:20;13.00;;;7.93;;
68196;SDS011;55019;49.382;11.358;2023-03-01T16:32:47;13.52;;;7.32;;
68196;SDS011;55019;49.382;11.358;2023-03-01T16:35:15;12.70;;;6.75;;
68196;SDS011;55019;49.382;11.358;2023-03-01T16:37:43;14.20;;;7.93;;
68196;SDS011;55019;49.382;11.358;2023-03-01T16:40:22;16.05;;;7.65;;
68196;SDS011;55019;49.382;11.358;2023-03-01T16:42:51;15.35;;;7.47;;
68196;SDS011;55019;49.382;11.358;2023-03-01T16:45:17;17.48;;;7.68;;
68196;SDS011;55019;49.382;11.358;2023-03-01T16:47:43;15.18;;;7.22;;
68196;SDS011;55019;49.382;11.358;2023-03-01T16:50:09;16.67;;;8.18;;
68196;SDS011;55019;49.382;11.358;2023-03-01T16:52:35;13.38;;;6.57;;
68196;SDS011;55019;49.382;11.358;2023-03-01T16:55:04;12.32;;;7.20;;